Time;durP1;ratioP1;P1;durP2;ratioP2;P2;SDS_P1;SDS_P2;PMS_P1;PMS_P2;Temp;Humidity;BMP_temperature;BMP_pressure;BME280_temperature;BME280_humidity;BME280_pressure;Samples;Min_cycle;Max_cycle;Signal;HPM_P1;HPM_P2
2023/03/19 00:01:26;;;;;;;4.05;1.30;;;10.00;99.90;;;;;;4921440;29;20055;-76
2023/03/19 00:03:52;;;;;;;5.82;1.63;;;10.00;99.90;;;;;;4924363;29;20051;-76
2023/03/19 00:06:18;;;;;;;3.47;1.60;;;10.00;99.90;;;;;;4922801;29;20029;-74
2023/03/19 00:08:43;;;;;;;3.80;1.48;;;10.00;99.90;;;;;;4908468;29;20393;-75
2023/03/19 00:11:11;;;;;;;3.97;1.55;;;9.90;99.90;;;;;;4923042;29;20081;-76
2023/03/19 00:13:37;;;;;;;3.30;1.70;;;9.90;99.90;;;;;;4922756;29;20032;-76
2023/03/19 00:16:03;;;;;;;4.85;1.48;;;9.80;99.90;;;;;;4924230;29;20028;-76
2023/03/19 00:18:29;;;;;;;8.20;1.77;;;9.80;99.90;;;;;;4921350;29;20544;-75
2023/03/19 00:20:55;;;;;;;5.00;1.80;;;9.80;99.90;;;;;;4919919;29;20024;-76
2023/03/19 00:23:20;;;;;;;5.78;1.75;;;9.80;99.90;;;;;;4911297;29;20087;-75
2023/03/19 00:25:46;;;;;;;3.47;1.70;;;9.80;99.90;;;;;;4920752;29;20062;-77
2023/03/19 00:28:12;;;;;;;4.47;1.50;;;9.90;99.90;;;;;;4922435;29;20062;-74
2023/03/19 00:30:37;;;;;;;5.22;1.27;;;9.80;99.90;;;;;;4923516;29;20039;-77
2023/03/19 00:33:03;;;;;;;3.47;1.58;;;9.90;99.90;;;;;;4918781;29;20505;-75
2023/03/19 00:35:29;;;;;;;3.67;1.30;;;9.90;99.90;;;;;;4912141;29;20067;-76
2023/03/19 00:37:54;;;;;;;5.75;1.60;;;9.80;99.90;;;;;;4919291;29;20032;-75
2023/03/19 00:40:20;;;;;;;5.88;1.80;;;9.80;99.90;;;;;;4923668;29;20084;-75
2023/03/19 00:42:46;;;;;;;4.60;1.50;;;9.80;99.90;;;;;;4921044;29;20017;-76
2023/03/19 00:45:12;;;;;;;4.03;1.50;;;9.80;99.90;;;;;;4911798;29;20030;-77
2023/03/19 00:47:37;;;;;;;3.00;1.30;;;9.80;99.90;;;;;;4910078;29;20580;-74
2023/03/19 00:50:04;;;;;;;4.18;1.67;;;9.70;99.90;;;;;;4915092;29;20086;-76
2023/03/19 00:52:30;;;;;;;7.15;1.92;;;9.70;99.90;;;;;;4919471;29;20115;-76
2023/03/19 00:54:56;;;;;;;3.47;1.40;;;9.60;99.90;;;;;;4921972;29;20576;-76
2023/03/19 00:57:22;;;;;;;4.50;2.30;;;9.60;99.90;;;;;;4917201;29;20508;-77
2023/03/19 00:59:48;;;;;;;6.28;2.03;;;9.60;99.90;;;;;;4914052;29;20032;-76
2023/03/19 01:02:13;;;;;;;5.70;1.80;;;9.60;99.90;;;;;;4923368;29;20508;-77
2023/03/19 01:04:39;;;;;;;2.97;2.00;;;9.60;99.90;;;;;;4923222;29;20032;-77
2023/03/19 01:07:05;;;;;;;3.80;1.65;;;9.60;99.90;;;;;;4918949;29;20028;-76
2023/03/19 01:09:31;;;;;;;5.70;2.47;;;9.50;99.90;;;;;;4911524;29;20036;-76
2023/03/19 01:11:57;;;;;;;8.15;2.45;;;9.50;99.90;;;;;;4922055;29;20079;-76
2023/03/19 01:14:23;;;;;;;4.15;2.08;;;9.60;99.90;;;;;;4922454;29;20032;-75
2023/03/19 01:16:49;;;;;;;4.93;2.15;;;9.60;99.90;;;;;;4921376;29;20059;-75
2023/03/19 01:19:15;;;;;;;6.85;2.05;;;9.60;99.90;;;;;;4921900;29;20028;-76
2023/03/19 01:21:44;;;;;;;3.90;2.05;;;9.60;99.90;;;;;;4914316;29;20084;-75
2023/03/19 01:24:11;;;;;;;4.60;1.85;;;9.70;99.90;;;;;;4916732;29;20462;-76
2023/03/19 01:26:37;;;;;;;6.18;2.25;;;9.70;99.90;;;;;;4920632;29;20207;-76
2023/03/19 01:29:03;;;;;;;6.38;2.08;;;9.70;99.90;;;;;;4922320;29;20100;-76
2023/03/19 01:31:29;;;;;;;5.70;2.17;;;9.70;99.90;;;;;;4921483;29;20027;-75
2023/03/19 01:33:55;;;;;;;5.50;2.20;;;9.80;99.90;;;;;;4912381;29;20397;-76
2023/03/19 01:36:21;;;;;;;4.05;2.08;;;9.90;99.90;;;;;;4915096;29;20016;-76
2023/03/19 01:38:46;;;;;;;4.78;1.90;;;9.90;99.90;;;;;;4920948;29;20034;-76
2023/03/19 01:41:13;;;;;;;6.60;2.35;;;9.90;99.90;;;;;;4922192;29;20110;-76
2023/03/19 01:43:39;;;;;;;5.95;2.03;;;9.90;99.90;;;;;;4914046;29;20080;-74
2023/03/19 01:46:12;;;;;;;5.50;1.83;;;9.90;99.90;;;;;;4909816;29;20540;-75
2023/03/19 01:48:40;;;;;;;;;;;9.90;99.90;;;;;;4911338;29;20044;-74
2023/03/19 01:51:09;;;;;;;4.75;1.67;;;9.90;99.90;;;;;;4918812;29;19957;-75
2023/03/19 01:53:38;;;;;;;7.10;2.00;;;9.90;99.90;;;;;;4922414;29;20066;-76
2023/03/19 01:56:18;;;;;;;4.47;1.83;;;9.80;99.90;;;;;;4921063;29;20031;-76
2023/03/19 01:58:47;;;;;;;5.18;2.05;;;9.80;99.90;;;;;;4920707;29;20374;-77
2023/03/19 02:01:14;;;;;;;3.85;1.95;;;9.80;99.90;;;;;;4922382;29;20024;-76
2023/03/19 02:03:41;;;;;;;5.93;2.00;;;9.80;99.90;;;;;;4922291;29;20035;-75
2023/03/19 02:06:09;;;;;;;5.95;1.90;;;9.80;99.90;;;;;;4920313;29;20416;-76
2023/03/19 02:08:37;;;;;;;3.10;1.55;;;9.80;99.90;;;;;;4906457;29;20024;-76
2023/03/19 02:11:03;;;;;;;3.33;1.63;;;9.80;99.90;;;;;;4922091;29;20080;-76
2023/03/19 02:13:29;;;;;;;4.40;1.67;;;9.90;99.90;;;;;;4922013;29;20079;-76
2023/03/19 02:15:55;;;;;;;5.35;1.70;;;9.90;99.90;;;;;;4922032;29;20028;-74
2023/03/19 02:18:22;;;;;;;3.42;1.60;;;9.90;99.90;;;;;;4919701;29;20052;-76
2023/03/19 02:21:06;;;;;;;3.30;1.50;;;9.90;99.90;;;;;;4920022;29;20123;-75
2023/03/19 02:23:53;;;;;;;4.95;1.80;;;9.90;99.90;;;;;;4910324;29;20056;-75
2023/03/19 02:26:21;;;;;;;3.92;1.52;;;9.90;99.90;;;;;;4919503;29;20594;-76
2023/03/19 02:28:49;;;;;;;8.45;1.60;;;9.90;99.90;;;;;;4921336;29;20031;-75
2023/03/19 02:31:17;;;;;;;6.15;1.80;;;9.90;99.90;;;;;;4921841;29;20016;-75
2023/03/19 02:33:43;;;;;;;4.15;1.38;;;9.90;99.90;;;;;;4912989;29;20512;-76
2023/03/19 02:36:13;;;;;;;6.65;1.40;;;10.00;99.90;;;;;;4913984;29;20028;-75
2023/03/19 02:38:41;;;;;;;5.88;1.50;;;10.00;99.90;;;;;;4918839;29;20030;-76
2023/03/19 02:41:08;;;;;;;2.25;1.20;;;10.00;99.90;;;;;;4921110;29;20039;-76
2023/03/19 02:43:36;;;;;;;5.80;1.60;;;10.00;99.90;;;;;;4913618;29;20100;-76
2023/03/19 02:46:05;;;;;;;4.88;1.40;;;9.90;99.90;;;;;;4908939;29;20052;-75
2023/03/19 02:48:31;;;;;;;4.88;1.65;;;9.90;99.90;;;;;;4909366;29;20445;-75
2023/03/19 02:50:57;;;;;;;5.88;1.95;;;9.90;99.90;;;;;;4918544;29;20043;-75
2023/03/19 02:53:23;;;;;;;6.72;1.50;;;9.90;99.90;;;;;;4920115;29;20028;-76
2023/03/19 02:55:49;;;;;;;6.85;1.67;;;9.80;99.90;;;;;;4921300;29;20036;-75
2023/03/19 02:58:15;;;;;;;6.65;1.60;;;9.80;99.90;;;;;;4907858;29;20080;-76
2023/03/19 03:00:41;;;;;;;4.93;1.50;;;9.80;99.90;;;;;;4904828;29;20430;-76
2023/03/19 03:03:07;;;;;;;3.67;1.52;;;9.70;99.90;;;;;;4921203;29;20032;-75
2023/03/19 03:05:33;;;;;;;8.38;1.80;;;9.70;99.90;;;;;;4920906;29;20091;-76
2023/03/19 03:07:59;;;;;;;5.38;1.55;;;9.70;99.90;;;;;;4910097;29;20028;-75
2023/03/19 03:10:25;;;;;;;4.45;1.60;;;9.80;99.90;;;;;;4916512;29;20040;-75
2023/03/19 03:12:51;;;;;;;4.05;1.40;;;9.70;99.90;;;;;;4920836;29;20509;-75
2023/03/19 03:15:17;;;;;;;3.70;1.60;;;9.70;99.90;;;;;;4919458;29;20032;-76
2023/03/19 03:17:45;;;;;;;3.92;1.42;;;9.70;99.90;;;;;;4919741;29;20031;-75
2023/03/19 03:20:12;;;;;;;7.70;1.98;;;9.70;99.90;;;;;;4920953;29;20024;-74
2023/03/19 03:22:39;;;;;;;5.72;1.80;;;9.70;99.90;;;;;;4905071;29;20059;-76
2023/03/19 03:25:05;;;;;;;5.03;1.73;;;9.70;99.90;;;;;;4917469;29;20040;-76
2023/03/19 03:27:31;;;;;;;5.57;1.80;;;9.70;99.90;;;;;;4920752;29;20031;-77
2023/03/19 03:29:57;;;;;;;4.80;1.88;;;9.70;99.90;;;;;;4919344;29;20024;-76
2023/03/19 03:32:23;;;;;;;3.75;1.80;;;9.70;99.90;;;;;;4920808;29;20035;-76
2023/03/19 03:34:49;;;;;;;4.95;1.83;;;9.70;99.90;;;;;;4904907;29;20398;-76
2023/03/19 03:37:16;;;;;;;3.45;1.50;;;9.80;99.90;;;;;;4915868;29;20020;-76
2023/03/19 03:39:42;;;;;;;5.68;1.63;;;9.70;99.90;;;;;;4920616;29;20062;-76
2023/03/19 03:42:07;;;;;;;4.38;1.63;;;9.70;99.90;;;;;;4919519;29;20032;-76
2023/03/19 03:44:33;;;;;;;2.50;1.15;;;9.70;99.90;;;;;;4910436;29;20063;-75
2023/03/19 03:46:59;;;;;;;3.97;1.20;;;9.80;99.90;;;;;;4904760;29;20111;-76
2023/03/19 03:49:24;;;;;;;4.45;1.20;;;9.80;99.90;;;;;;4910378;29;20107;-76
2023/03/19 03:51:50;;;;;;;3.33;1.38;;;9.80;99.90;;;;;;4919005;29;20370;-76
2023/03/19 03:54:16;;;;;;;5.78;1.33;;;9.80;99.90;;;;;;4920562;29;20136;-76
2023/03/19 03:56:42;;;;;;;2.40;1.30;;;9.80;99.90;;;;;;4918759;29;20032;-75
2023/03/19 03:59:08;;;;;;;4.50;1.30;;;9.80;99.90;;;;;;4919094;29;20032;-76
2023/03/19 04:01:34;;;;;;;4.00;1.50;;;9.80;99.90;;;;;;4912687;29;20025;-76
2023/03/19 04:04:00;;;;;;;5.25;1.58;;;9.80;99.90;;;;;;4911360;29;20099;-76
2023/03/19 04:06:27;;;;;;;2.88;1.55;;;9.80;99.90;;;;;;4919431;29;20036;-76
2023/03/19 04:08:52;;;;;;;3.10;1.30;;;9.80;99.90;;;;;;4904564;29;20039;-76
2023/03/19 04:11:19;;;;;;;5.85;1.73;;;9.80;99.90;;;;;;4920423;29;20024;-76
2023/03/19 04:13:44;;;;;;;2.60;1.33;;;9.80;99.90;;;;;;4920111;29;20032;-76
2023/03/19 04:16:10;;;;;;;3.03;1.45;;;9.70;99.90;;;;;;4920427;29;20029;-75
2023/03/19 04:18:37;;;;;;;3.65;1.40;;;9.70;99.90;;;;;;4917978;29;20076;-75
2023/03/19 04:21:04;;;;;;;6.70;1.80;;;9.60;99.90;;;;;;4916573;29;20458;-76
2023/03/19 04:23:31;;;;;;;4.20;1.60;;;9.60;99.90;;;;;;4908685;29;20032;-76
2023/03/19 04:26:02;;;;;;;2.97;1.52;;;9.60;99.90;;;;;;4918803;29;20554;-76
2023/03/19 04:28:28;;;;;;;4.57;1.60;;;9.60;99.90;;;;;;4915876;29;20393;-74
2023/03/19 04:31:01;;;;;;;3.38;1.52;;;9.60;99.90;;;;;;4905027;29;20020;-76
2023/03/19 04:33:28;;;;;;;2.97;1.20;;;9.50;99.90;;;;;;4912192;29;20040;-75
2023/03/19 04:35:54;;;;;;;7.07;1.60;;;9.50;99.90;;;;;;4909214;29;20020;-75
2023/03/19 04:38:21;;;;;;;4.97;1.60;;;9.50;99.90;;;;;;4916894;29;20116;-76
2023/03/19 04:40:47;;;;;;;3.45;1.63;;;9.50;99.90;;;;;;4918127;29;20556;-76
2023/03/19 04:43:13;;;;;;;2.58;1.90;;;9.50;99.90;;;;;;4913619;29;20066;-76
2023/03/19 04:45:39;;;;;;;5.72;1.50;;;9.50;99.90;;;;;;4907482;29;20028;-76
2023/03/19 04:48:05;;;;;;;2.03;1.20;;;9.50;99.90;;;;;;4908439;29;20645;-75
2023/03/19 04:50:31;;;;;;;2.35;1.42;;;9.50;99.90;;;;;;4917765;29;20024;-76
2023/03/19 04:52:57;;;;;;;4.00;1.48;;;9.50;99.90;;;;;;4923212;29;20461;-76
2023/03/19 04:55:22;;;;;;;5.55;1.65;;;9.50;99.90;;;;;;4923585;29;20043;-77
2023/03/19 04:57:48;;;;;;;4.32;2.10;;;9.50;99.90;;;;;;4922148;29;20024;-76
2023/03/19 05:00:15;;;;;;;3.20;1.38;;;9.50;99.90;;;;;;4920314;29;20038;-76
2023/03/19 05:02:41;;;;;;;2.45;1.40;;;9.50;99.90;;;;;;4906293;29;20032;-76
2023/03/19 05:05:09;;;;;;;3.65;1.25;;;9.50;99.90;;;;;;4923187;29;20405;-76
2023/03/19 05:07:35;;;;;;;3.42;1.70;;;9.60;99.90;;;;;;4915451;29;20029;-76
2023/03/19 05:10:01;;;;;;;4.70;1.83;;;9.60;99.90;;;;;;4915643;29;20405;-76
2023/03/19 05:12:27;;;;;;;4.00;1.52;;;9.50;99.90;;;;;;4923376;29;20028;-76
2023/03/19 05:14:53;;;;;;;3.47;1.40;;;9.60;99.90;;;;;;4923006;29;20545;-76
2023/03/19 05:17:18;;;;;;;3.95;1.42;;;9.60;99.90;;;;;;4923262;29;20028;-76
2023/03/19 05:19:44;;;;;;;3.22;1.27;;;9.60;99.90;;;;;;4923264;29;20036;-75
2023/03/19 05:22:09;;;;;;;3.05;1.48;;;9.60;99.90;;;;;;4910658;29;20037;-76
2023/03/19 05:24:35;;;;;;;3.35;1.45;;;9.60;99.90;;;;;;4917938;29;20052;-75
2023/03/19 05:27:01;;;;;;;3.30;1.60;;;9.60;99.90;;;;;;4923002;29;20031;-76
2023/03/19 05:29:27;;;;;;;2.85;1.50;;;9.70;99.90;;;;;;4922580;29;20066;-76
2023/03/19 05:31:52;;;;;;;3.75;1.70;;;9.70;99.90;;;;;;4922880;29;20020;-76
2023/03/19 05:34:18;;;;;;;1.10;0.85;;;9.70;99.90;;;;;;4909448;29;20032;-75
2023/03/19 05:36:44;;;;;;;2.78;1.30;;;9.70;99.90;;;;;;4916424;29;20084;-76
2023/03/19 05:39:09;;;;;;;4.20;1.50;;;9.70;99.90;;;;;;4922755;29;20104;-76
2023/03/19 05:41:35;;;;;;;3.30;1.30;;;9.70;99.90;;;;;;4922209;29;20141;-75
2023/03/19 05:44:01;;;;;;;4.22;1.35;;;9.70;99.90;;;;;;4912949;29;20039;-75
2023/03/19 05:46:26;;;;;;;4.55;1.40;;;9.70;99.90;;;;;;4907934;29;20052;-77
2023/03/19 05:48:52;;;;;;;2.70;1.25;;;9.70;99.90;;;;;;4912706;29;20493;-77
2023/03/19 05:51:18;;;;;;;2.42;1.15;;;9.70;99.90;;;;;;4920519;29;20028;-75
2023/03/19 05:53:43;;;;;;;3.17;1.48;;;9.70;99.90;;;;;;4922594;29;20090;-75
2023/03/19 05:56:09;;;;;;;5.63;1.40;;;9.70;99.90;;;;;;4922546;29;20024;-76
2023/03/19 05:58:35;;;;;;;4.07;1.40;;;9.70;99.90;;;;;;4920959;29;20669;-75
2023/03/19 06:01:01;;;;;;;2.88;1.40;;;9.70;99.90;;;;;;4918820;29;20029;-75
2023/03/19 06:03:27;;;;;;;2.42;1.13;;;9.70;99.90;;;;;;4910392;29;20024;-74
2023/03/19 06:05:52;;;;;;;2.72;1.05;;;9.70;99.90;;;;;;4921685;29;20087;-76
2023/03/19 06:08:18;;;;;;;2.95;1.02;;;9.70;99.90;;;;;;4908626;29;20028;-75
2023/03/19 06:10:44;;;;;;;1.45;0.75;;;9.70;99.90;;;;;;4920131;29;20032;-75
2023/03/19 06:13:10;;;;;;;2.55;0.90;;;9.80;99.90;;;;;;4920734;29;20056;-76
2023/03/19 06:15:36;;;;;;;3.53;0.98;;;9.80;99.90;;;;;;4922051;29;20075;-76
2023/03/19 06:18:01;;;;;;;2.17;0.80;;;9.80;99.90;;;;;;4919762;29;20400;-76
2023/03/19 06:20:27;;;;;;;2.03;0.88;;;9.80;99.90;;;;;;4922008;29;20032;-75
2023/03/19 06:22:53;;;;;;;3.83;1.10;;;9.80;99.90;;;;;;4906259;29;20037;-75
2023/03/19 06:25:19;;;;;;;2.90;1.00;;;9.80;99.90;;;;;;4920374;29;20052;-77
2023/03/19 06:27:45;;;;;;;3.53;1.00;;;9.80;99.90;;;;;;4921729;29;20564;-76
2023/03/19 06:30:11;;;;;;;3.50;1.50;;;9.70;99.90;;;;;;4921790;29;20497;-75
2023/03/19 06:32:37;;;;;;;3.95;1.40;;;9.70;99.90;;;;;;4921257;29;20024;-76
2023/03/19 06:35:04;;;;;;;3.30;1.90;;;9.60;99.90;;;;;;4906733;29;20020;-76
2023/03/19 06:37:29;;;;;;;1.85;1.38;;;9.60;99.90;;;;;;4917231;29;20024;-76
2023/03/19 06:39:55;;;;;;;2.88;1.30;;;9.60;99.90;;;;;;4921621;29;20111;-76
2023/03/19 06:42:21;;;;;;;3.45;1.45;;;9.60;99.90;;;;;;4921034;29;20036;-75
2023/03/19 06:44:47;;;;;;;2.42;1.30;;;9.60;99.90;;;;;;4910750;29;20071;-76
2023/03/19 06:47:13;;;;;;;2.50;0.98;;;9.60;99.90;;;;;;4907542;29;20040;-77
2023/03/19 06:49:39;;;;;;;2.05;1.30;;;9.70;99.90;;;;;;4911565;29;20481;-75
2023/03/19 06:52:05;;;;;;;5.07;1.20;;;9.70;99.90;;;;;;4918537;29;20076;-75
2023/03/19 06:54:31;;;;;;;1.83;1.10;;;9.70;99.90;;;;;;4921426;29;20477;-75
2023/03/19 06:56:57;;;;;;;1.85;0.95;;;9.70;99.90;;;;;;4921178;29;20024;-75
2023/03/19 06:59:23;;;;;;;4.22;1.10;;;9.70;99.90;;;;;;4919370;29;20039;-75
2023/03/19 07:01:49;;;;;;;2.55;1.00;;;9.70;99.90;;;;;;4911514;29;20024;-75
2023/03/19 07:04:15;;;;;;;2.30;0.93;;;9.60;99.90;;;;;;4915532;29;20032;-76
2023/03/19 07:06:41;;;;;;;2.08;0.75;;;9.50;99.90;;;;;;4919718;29;20035;-76
2023/03/19 07:09:07;;;;;;;4.15;0.95;;;9.50;99.90;;;;;;4906498;29;20028;-75
2023/03/19 07:11:33;;;;;;;3.63;0.82;;;9.50;99.90;;;;;;4920513;29;20059;-76
2023/03/19 07:13:58;;;;;;;4.00;1.10;;;9.40;99.90;;;;;;4921023;29;20032;-76
2023/03/19 07:16:24;;;;;;;4.22;0.85;;;9.40;99.90;;;;;;4918109;29;20449;-74
2023/03/19 07:18:49;;;;;;;1.55;0.80;;;9.30;99.90;;;;;;4920288;29;20060;-75
2023/03/19 07:21:15;;;;;;;2.28;0.80;;;9.30;99.90;;;;;;4914335;29;20493;-76
2023/03/19 07:23:41;;;;;;;2.72;0.85;;;9.30;99.90;;;;;;4910864;29;20039;-76
2023/03/19 07:26:06;;;;;;;3.25;0.88;;;9.30;99.90;;;;;;4917263;29;20036;-76
2023/03/19 07:28:33;;;;;;;4.07;0.88;;;9.30;99.90;;;;;;4919356;29;20039;-75
2023/03/19 07:30:59;;;;;;;2.97;0.80;;;9.30;99.90;;;;;;4919584;29;20024;-75
2023/03/19 07:33:24;;;;;;;2.90;0.95;;;9.30;99.90;;;;;;4914335;29;20387;-76
2023/03/19 07:35:50;;;;;;;4.03;0.70;;;9.30;99.90;;;;;;4911837;29;20020;-75
2023/03/19 07:38:16;;;;;;;2.33;0.77;;;9.30;99.90;;;;;;4920879;29;20024;-76
2023/03/19 07:40:41;;;;;;;2.17;0.73;;;9.40;99.90;;;;;;4920311;29;20035;-75
2023/03/19 07:43:07;;;;;;;2.22;0.73;;;9.40;99.90;;;;;;4916186;29;20063;-75
2023/03/19 07:45:33;;;;;;;2.40;0.77;;;9.40;99.90;;;;;;4907703;29;20071;-75
2023/03/19 07:48:02;;;;;;;5.88;1.00;;;9.50;99.90;;;;;;4908583;29;20084;-75
2023/03/19 07:50:30;;;;;;;3.70;1.00;;;9.50;99.90;;;;;;4915281;29;20402;-75
2023/03/19 07:52:55;;;;;;;3.53;1.15;;;9.50;99.90;;;;;;4918708;29;20048;-76
2023/03/19 07:55:21;;;;;;;5.32;1.10;;;9.50;99.90;;;;;;4920481;29;20028;-76
2023/03/19 07:57:47;;;;;;;3.05;0.70;;;9.60;99.90;;;;;;4910711;29;20031;-75
2023/03/19 08:00:13;;;;;;;7.35;1.20;;;9.70;99.90;;;;;;4914554;29;20142;-76
2023/03/19 08:02:39;;;;;;;2.35;0.70;;;9.70;99.90;;;;;;4903533;29;20028;-76
2023/03/19 08:05:05;;;;;;;4.93;1.25;;;9.70;99.90;;;;;;4920359;29;20146;-76
2023/03/19 08:07:31;;;;;;;4.68;1.27;;;9.80;99.90;;;;;;4920430;29;20024;-76
2023/03/19 08:09:57;;;;;;;3.30;1.15;;;9.80;99.90;;;;;;4913406;29;20024;-75
2023/03/19 08:12:23;;;;;;;5.60;1.10;;;9.80;99.90;;;;;;4906367;29;20025;-76
2023/03/19 08:14:49;;;;;;;3.00;0.85;;;9.90;99.90;;;;;;4918697;29;20103;-76
2023/03/19 08:17:16;;;;;;;5.10;0.80;;;10.00;99.90;;;;;;4920554;29;20059;-75
2023/03/19 08:19:41;;;;;;;5.63;0.85;;;10.10;99.90;;;;;;4919063;29;20032;-75
2023/03/19 08:22:07;;;;;;;6.28;1.00;;;10.10;99.90;;;;;;4908163;29;20080;-75
2023/03/19 08:24:33;;;;;;;3.15;1.00;;;10.20;99.90;;;;;;4917368;29;20023;-76
2023/03/19 08:26:59;;;;;;;5.85;1.10;;;10.10;99.90;;;;;;4923939;29;20024;-75
2023/03/19 08:29:28;;;;;;;3.13;0.90;;;10.20;99.90;;;;;;4923725;29;20488;-75
2023/03/19 08:31:55;;;;;;;3.33;0.80;;;10.20;99.90;;;;;;4923994;29;20036;-75
2023/03/19 08:34:21;;;;;;;3.80;0.90;;;10.20;99.90;;;;;;4910094;29;20020;-76
2023/03/19 08:36:47;;;;;;;4.57;1.20;;;10.30;99.90;;;;;;4918936;29;20532;-77
2023/03/19 08:39:13;;;;;;;2.70;0.80;;;10.20;99.90;;;;;;4910066;29;20032;-75
2023/03/19 08:41:38;;;;;;;6.03;0.82;;;10.20;99.90;;;;;;4923792;29;20035;-76
2023/03/19 08:44:04;;;;;;;2.78;0.88;;;10.30;99.90;;;;;;4912851;29;20064;-76
2023/03/19 08:46:30;;;;;;;4.28;0.90;;;10.40;99.90;;;;;;4908700;29;20051;-76
2023/03/19 08:48:55;;;;;;;4.05;0.90;;;10.50;99.90;;;;;;4914306;29;20032;-71
2023/03/19 08:51:24;;;;;;;5.38;1.02;;;10.60;99.90;;;;;;4919981;29;20072;-78
2023/03/19 08:53:51;;;;;;;3.20;0.80;;;10.80;99.90;;;;;;4914443;29;20027;-77
2023/03/19 08:56:16;;;;;;;2.20;0.70;;;10.80;99.90;;;;;;4911394;29;20037;-78
2023/03/19 08:58:42;;;;;;;2.88;1.15;;;10.90;99.90;;;;;;4907576;29;20025;-78
2023/03/19 09:01:10;;;;;;;3.90;0.85;;;10.90;99.90;;;;;;4913092;29;20647;-78
2023/03/19 09:03:37;;;;;;;2.72;0.75;;;11.00;99.90;;;;;;4922201;29;20052;-78
2023/03/19 09:06:05;;;;;;;2.75;0.80;;;11.00;99.90;;;;;;4921450;29;20020;-77
2023/03/19 09:08:31;;;;;;;4.55;0.90;;;11.00;99.90;;;;;;4921691;29;20497;-76
2023/03/19 09:10:57;;;;;;;2.40;0.80;;;11.00;99.90;;;;;;4922409;29;20103;-75
2023/03/19 09:13:23;;;;;;;4.13;0.70;;;11.10;99.90;;;;;;4919886;29;20080;-76
2023/03/19 09:15:50;;;;;;;2.30;0.70;;;11.10;99.90;;;;;;4914099;29;20039;-75
2023/03/19 09:18:16;;;;;;;5.15;0.80;;;11.00;99.90;;;;;;4917203;29;20071;-75
2023/03/19 09:20:42;;;;;;;4.60;0.77;;;11.00;99.90;;;;;;4919086;29;20427;-76
2023/03/19 09:23:07;;;;;;;3.65;0.88;;;11.00;99.90;;;;;;4905455;29;20032;-76
2023/03/19 09:25:33;;;;;;;4.63;0.98;;;11.00;99.90;;;;;;4920594;29;20081;-75
2023/03/19 09:27:59;;;;;;;4.47;0.88;;;11.00;99.90;;;;;;4922740;29;20032;-76
2023/03/19 09:30:24;;;;;;;3.47;0.90;;;11.10;99.90;;;;;;4922916;29;20043;-76
2023/03/19 09:32:50;;;;;;;4.13;0.50;;;11.10;99.90;;;;;;4919401;29;20020;-75
2023/03/19 09:35:16;;;;;;;2.35;0.70;;;11.20;99.90;;;;;;4909061;29;20032;-75
2023/03/19 09:37:41;;;;;;;3.40;0.73;;;11.20;99.90;;;;;;4922617;29;20020;-78
2023/03/19 09:40:19;;;;;;;2.95;0.77;;;11.10;99.90;;;;;;4922675;29;20553;-76
2023/03/19 09:43:30;;;;;;;3.08;0.88;;;11.20;99.90;;;;;;4919170;29;20043;-77
2023/03/19 09:45:57;;;;;;;2.58;0.65;;;11.20;99.90;;;;;;4910153;29;20036;-77
2023/03/19 09:48:39;;;;;;;3.03;0.88;;;11.30;99.90;;;;;;4910576;29;20446;-77
2023/03/19 09:51:10;;;;;;;2.58;0.60;;;11.30;99.90;;;;;;4922251;29;20123;-78
2023/03/19 09:53:44;;;;;;;2.60;0.68;;;11.30;99.90;;;;;;4922522;29;20028;-78
2023/03/19 09:56:15;;;;;;;4.43;0.90;;;11.20;99.90;;;;;;4921269;29;20397;-77
2023/03/19 09:58:41;;;;;;;3.83;0.80;;;11.40;99.90;;;;;;4912706;29;20028;-77
2023/03/19 10:01:24;;;;;;;4.47;1.00;;;11.50;99.90;;;;;;4921128;29;20020;-77
2023/03/19 10:04:23;;;;;;;7.05;1.15;;;11.60;99.90;;;;;;4922383;29;20070;-78
2023/03/19 10:06:54;;;;;;;3.38;0.77;;;11.60;99.90;;;;;;4919765;29;20032;-77
2023/03/19 10:09:33;;;;;;;4.18;0.80;;;11.60;99.90;;;;;;4922307;29;20118;-77
2023/03/19 10:12:40;;;;;;;3.55;0.90;;;11.70;99.90;;;;;;4922331;29;20031;-77
2023/03/19 10:15:18;;;;;;;3.88;0.85;;;11.60;99.90;;;;;;4916305;29;20025;-77
2023/03/19 10:17:56;;;;;;;4.20;0.90;;;11.60;99.90;;;;;;4912439;29;20028;-77
2023/03/19 10:20:41;;;;;;;4.18;0.90;;;11.50;99.90;;;;;;4916030;29;20028;-77
2023/03/19 10:23:22;;;;;;;3.65;0.98;;;11.60;99.90;;;;;;4917804;29;20028;-77
2023/03/19 10:25:52;;;;;;;3.67;0.80;;;11.70;99.90;;;;;;4911145;29;20477;-77
2023/03/19 10:28:20;;;;;;;4.07;1.08;;;11.70;99.90;;;;;;4916480;29;20508;-77
2023/03/19 10:31:00;;;;;;;3.97;0.95;;;11.70;99.90;;;;;;4921640;29;20039;-78
2023/03/19 10:33:45;;;;;;;4.78;0.90;;;11.50;99.90;;;;;;4902783;29;20434;-78
2023/03/19 10:36:11;;;;;;;4.72;0.88;;;11.60;99.90;;;;;;4915701;29;20092;-74
2023/03/19 10:38:42;;;;;;;5.55;0.88;;;11.20;99.90;;;;;;4921751;29;20083;-73
2023/03/19 10:41:48;;;;;;;2.55;0.70;;;11.20;99.90;;;;;;4921169;29;20043;-74
2023/03/19 10:44:41;;;;;;;5.88;0.98;;;11.30;99.90;;;;;;4912205;29;20107;-73
2023/03/19 10:47:13;;;;;;;2.13;0.52;;;11.60;99.90;;;;;;4905372;29;20033;-74
2023/03/19 10:49:39;;;;;;;2.63;0.90;;;11.70;99.90;;;;;;4912835;29;20127;-73
2023/03/19 10:52:15;;;;;;;2.08;0.60;;;11.70;95.60;;;;;;4918047;29;20032;-72
2023/03/19 10:54:43;;;;;;;2.05;0.68;;;11.60;99.90;;;;;;4919876;29;20079;-73
2023/03/19 10:57:22;;;;;;;3.30;0.63;;;11.50;99.90;;;;;;4921250;29;20020;-72
2023/03/19 10:59:47;;;;;;;3.38;1.02;;;11.70;99.90;;;;;;4910461;29;20029;-72
2023/03/19 11:02:26;;;;;;;6.00;1.13;;;11.90;99.90;;;;;;4915363;29;20103;-72
2023/03/19 11:05:20;;;;;;;4.75;0.88;;;11.70;99.90;;;;;;4921142;29;20032;-72
2023/03/19 11:08:12;;;;;;;4.30;0.80;;;11.60;99.90;;;;;;4899043;29;20044;-74
2023/03/19 11:10:48;;;;;;;5.28;1.02;;;11.40;99.90;;;;;;4917604;29;20024;-73
2023/03/19 11:13:34;;;;;;;4.10;1.23;;;11.50;99.90;;;;;;4907300;29;20374;-73
2023/03/19 11:16:01;;;;;;;4.53;1.10;;;11.60;99.90;;;;;;4919881;29;20020;-74
2023/03/19 11:18:30;;;;;;;4.25;1.10;;;11.80;98.10;;;;;;4918683;29;20024;-73
2023/03/19 11:21:08;;;;;;;4.15;1.00;;;12.10;99.90;;;;;;4917889;29;20032;-73
2023/03/19 11:23:40;;;;;;;6.80;1.38;;;12.10;92.50;;;;;;4909938;29;20111;-73
2023/03/19 11:26:06;;;;;;;3.80;1.63;;;12.00;99.90;;;;;;4908883;29;20043;-73
2023/03/19 11:28:36;;;;;;;4.88;1.00;;;11.80;91.00;;;;;;4915839;29;20032;-74
2023/03/19 11:31:26;;;;;;;7.03;1.27;;;11.70;99.90;;;;;;4914180;29;20020;-75
2023/03/19 11:33:54;;;;;;;4.32;0.90;;;11.60;99.90;;;;;;4910820;29;20029;-75
2023/03/19 11:36:38;;;;;;;3.53;1.00;;;11.60;99.90;;;;;;4915724;29;20020;-76
2023/03/19 11:39:09;;;;;;;4.28;0.90;;;11.80;99.90;;;;;;4911984;29;20080;-77
2023/03/19 11:41:56;;;;;;;3.20;0.95;;;12.00;99.90;;;;;;4909744;29;20032;-76
2023/03/19 11:44:39;;;;;;;4.45;1.10;;;12.40;96.90;;;;;;4911499;29;20043;-75
2023/03/19 11:47:23;;;;;;;3.88;1.10;;;12.60;99.90;;;;;;4911207;29;20075;-75
2023/03/19 11:50:07;;;;;;;5.60;1.10;;;12.50;97.10;;;;;;4927386;29;20043;-74
2023/03/19 11:53:00;;;;;;;3.65;0.93;;;12.50;97.90;;;;;;4905025;29;20021;-76
2023/03/19 11:55:49;;;;;;;5.37;1.07;;;12.40;97.20;;;;;;4909360;29;20086;-74
2023/03/19 11:58:33;;;;;;;5.57;1.20;;;12.30;98.50;;;;;;4914367;29;20264;-75
2023/03/19 12:01:30;;;;;;;3.65;0.88;;;12.30;95.20;;;;;;4920276;29;20036;-76
2023/03/19 12:04:16;;;;;;;3.38;0.98;;;12.60;98.80;;;;;;4912395;29;20032;-75
2023/03/19 12:07:02;;;;;;;3.45;0.90;;;12.70;98.90;;;;;;4899881;29;20139;-76
2023/03/19 12:09:37;;;;;;;6.22;0.95;;;13.00;99.50;;;;;;4909740;29;20083;-76
2023/03/19 12:12:43;;;;;;;3.47;0.90;;;13.00;98.90;;;;;;4910585;29;20077;-75
2023/03/19 12:15:20;;;;;;;3.22;0.80;;;12.90;97.90;;;;;;4907121;29;20028;-75
2023/03/19 12:18:16;;;;;;;3.80;0.90;;;12.70;96.70;;;;;;4912091;29;20024;-75
2023/03/19 12:21:11;;;;;;;2.47;0.90;;;12.80;96.80;;;;;;4911214;29;20109;-74
2023/03/19 12:23:54;;;;;;;5.03;0.85;;;12.80;93.70;;;;;;4912904;29;20843;-72
2023/03/19 12:26:34;;;;;;;4.03;0.82;;;12.90;98.90;;;;;;4912428;29;20036;-80
2023/03/19 12:29:26;;;;;;;3.38;0.80;;;12.80;93.00;;;;;;4910412;29;20040;-79
2023/03/19 12:31:55;;;;;;;4.30;0.95;;;12.60;94.80;;;;;;4914170;29;20027;-79
2023/03/19 12:34:28;;;;;;;3.55;0.90;;;12.30;95.20;;;;;;4913835;29;20020;-80
2023/03/19 12:37:23;;;;;;;4.75;0.90;;;12.20;96.50;;;;;;4912281;29;20125;-80
2023/03/19 12:40:12;;;;;;;5.15;1.08;;;12.20;97.70;;;;;;4902132;29;20112;-80
2023/03/19 12:42:39;;;;;;;4.63;0.70;;;12.40;96.70;;;;;;4878424;29;20044;-79
2023/03/19 12:45:29;;;;;;;4.60;1.00;;;12.60;99.40;;;;;;4911028;29;20025;-80
2023/03/19 12:48:15;;;;;;;5.93;1.10;;;12.70;98.10;;;;;;4912377;29;20500;-82
2023/03/19 12:50:48;;;;;;;3.40;1.10;;;12.70;96.70;;;;;;4908611;29;20063;-82
2023/03/19 12:53:30;;;;;;;4.43;1.00;;;12.60;76.40;;;;;;4908698;29;20024;-82
2023/03/19 12:56:00;;;;;;;4.25;1.00;;;12.60;95.70;;;;;;4915197;29;20104;-80
2023/03/19 12:58:55;;;;;;;3.70;1.25;;;12.60;79.10;;;;;;4909876;29;20048;-82
2023/03/19 13:01:37;;;;;;;5.95;0.90;;;12.60;94.20;;;;;;4913033;29;20039;-81
2023/03/19 13:04:15;;;;;;;4.97;1.10;;;12.60;93.60;;;;;;4908215;29;20538;-81
2023/03/19 13:06:57;;;;;;;3.10;1.00;;;12.50;81.70;;;;;;4910713;29;20037;-81